Time,TemperatureC,DewpointC,PressurehPa,WindDirection,WindDirectionDegrees,WindSpeedKMH,WindSpeedGustKMH,Humidity,HourlyPrecipMM,Conditions,Clouds,dailyrainMM,SolarRadiationWatts/m^2,UVIndex,SoftwareType,DateUTC
2026-05-08 00:03:05,10.8,7.9,1016.6,East,98,0,4.8,82,0.0,,,0.0,0,0,n/a,2026-05-07T22:03:05Z
2026-05-08 00:08:12,10.8,8,1016.6,East,101,1.4,4.8,83,0.0,,,0.0,0,0,n/a,2026-05-07T22:08:12Z
2026-05-08 00:13:13,10.7,7.9,1016.6,NNE,30,4.7,6.4,83,0.0,,,0.0,0,0,n/a,2026-05-07T22:13:13Z
2026-05-08 00:18:13,10.7,7.9,1016.6,ENE,65,0,6.4,83,0.0,,,0.0,0,0,n/a,2026-05-07T22:18:13Z
2026-05-08 00:23:13,10.6,7.8,1016.6,ESE,105,4.7,6.4,83,0.0,,,0.0,0,0,n/a,2026-05-07T22:23:13Z
2026-05-08 00:28:13,10.5,7.7,1016.6,NE,45,4.7,4.8,83,0.0,,,0.0,0,0,n/a,2026-05-07T22:28:13Z
2026-05-08 00:33:13,10.4,7.8,1016.6,NE,39,3.2,6.4,84,0.0,,,0.0,0,0,n/a,2026-05-07T22:33:13Z
2026-05-08 00:38:13,10.3,7.7,1016.6,ENE,74,4.7,6.4,84,0.0,,,0.0,0,0,n/a,2026-05-07T22:38:13Z
2026-05-08 00:43:13,10.2,7.6,1016.6,NE,35,3.2,8,84,0.0,,,0.0,0,0,n/a,2026-05-07T22:43:13Z
2026-05-08 00:48:13,10.2,7.6,1016.9,NNE,14,4.7,8,84,0.0,,,0.0,0,0,n/a,2026-05-07T22:48:13Z
2026-05-08 00:53:17,10.1,7.5,1016.6,SE,136,4.7,6.4,84,0.0,,,0.0,0,0,n/a,2026-05-07T22:53:17Z
2026-05-08 00:58:17,10,7.6,1016.6,NNE,26,3.2,9.7,85,0.0,,,0.0,0,0,n/a,2026-05-07T22:58:17Z
2026-05-08 01:03:17,9.9,7.5,1016.6,ESE,112,4.7,4.8,85,0.0,,,0.0,0,0,n/a,2026-05-07T23:03:17Z
2026-05-08 01:08:17,9.9,7.5,1016.6,NNE,30,3.2,3.2,85,0.0,,,0.0,0,0,n/a,2026-05-07T23:08:17Z
2026-05-08 01:13:17,9.8,7.4,1016.6,SSE,150,1.4,6.4,85,0.0,,,0.0,0,0,n/a,2026-05-07T23:13:17Z
2026-05-08 01:18:17,9.8,7.6,1016.6,East,98,4.7,6.4,86,0.0,,,0.0,0,0,n/a,2026-05-07T23:18:17Z
2026-05-08 01:23:17,9.8,7.6,1016.6,ESE,115,6.4,6.4,86,0.0,,,0.0,0,0,n/a,2026-05-07T23:23:17Z
2026-05-08 01:28:17,9.7,7.5,1016.9,NE,48,0,4.8,86,0.0,,,0.0,0,0,n/a,2026-05-07T23:28:17Z
2026-05-08 01:33:18,9.7,7.5,1016.9,NE,43,4.7,9.7,86,0.0,,,0.0,0,0,n/a,2026-05-07T23:33:18Z
2026-05-08 01:38:19,9.6,7.4,1016.9,ENE,67,1.4,6.4,86,0.0,,,0.0,0,0,n/a,2026-05-07T23:38:19Z
2026-05-08 01:43:19,9.6,7.5,1016.9,ENE,60,4.7,4.8,87,0.0,,,0.0,0,0,n/a,2026-05-07T23:43:19Z
2026-05-08 01:48:19,9.5,7.4,1016.9,East,92,1.4,4.8,87,0.0,,,0.0,0,0,n/a,2026-05-07T23:48:19Z
2026-05-08 01:53:19,9.5,7.4,1016.9,ESE,122,3.2,3.2,87,0.0,,,0.0,0,0,n/a,2026-05-07T23:53:19Z
2026-05-08 01:58:19,9.4,7.3,1016.6,ESE,111,0,3.2,87,0.0,,,0.0,0,0,n/a,2026-05-07T23:58:19Z
2026-05-08 02:03:19,9.4,7.5,1016.6,NE,34,0,4.8,88,0.0,,,0.0,0,0,n/a,2026-05-08T00:03:19Z
2026-05-08 02:08:19,9.4,7.5,1016.6,ESE,115,1.4,4.8,88,0.0,,,0.0,0,0,n/a,2026-05-08T00:08:19Z
2026-05-08 02:13:19,9.3,7.4,1016.6,ENE,75,1.4,8,88,0.0,,,0.0,0,0,n/a,2026-05-08T00:13:19Z
2026-05-08 02:18:19,9.3,7.4,1016.6,ENE,65,0,4.8,88,0.0,,,0.0,0,0,n/a,2026-05-08T00:18:19Z
2026-05-08 02:23:21,9.3,7.4,1016.6,NE,42,0,6.4,88,0.0,,,0.0,0,0,n/a,2026-05-08T00:23:21Z
2026-05-08 02:28:21,9.3,7.4,1016.6,NE,51,1.4,4.8,88,0.0,,,0.0,0,0,n/a,2026-05-08T00:28:21Z
2026-05-08 02:33:21,9.2,7.5,1016.6,SE,132,3.2,4.8,89,0.0,,,0.0,0,0,n/a,2026-05-08T00:33:21Z
2026-05-08 02:38:21,9.2,7.5,1016.6,NNE,31,0,4.8,89,0.0,,,0.0,0,0,n/a,2026-05-08T00:38:21Z
2026-05-08 02:43:21,9.1,7.4,1016.6,ESE,118,1.4,3.2,89,0.0,,,0.0,0,0,n/a,2026-05-08T00:43:21Z
2026-05-08 02:48:21,9.1,7.4,1016.6,NE,44,3.2,4.8,89,0.0,,,0.0,0,0,n/a,2026-05-08T00:48:21Z
2026-05-08 02:53:21,9.1,7.4,1016.6,NNE,28,3.2,4.8,89,0.0,,,0.0,0,0,n/a,2026-05-08T00:53:21Z
2026-05-08 02:58:21,9,7.4,1016.6,NE,51,1.4,4.8,90,0.0,,,0.0,0,0,n/a,2026-05-08T00:58:21Z
2026-05-08 03:03:21,8.9,7.3,1016.6,ENE,78,0,4.8,90,0.0,,,0.0,0,0,n/a,2026-05-08T01:03:21Z
2026-05-08 03:08:21,8.9,7.3,1016.6,NE,55,3.2,6.4,90,0.0,,,0.0,0,0,n/a,2026-05-08T01:08:21Z
2026-05-08 03:13:21,8.8,7.2,1016.6,NNE,29,3.2,6.4,90,0.0,,,0.0,0,0,n/a,2026-05-08T01:13:21Z
2026-05-08 03:18:21,8.8,7.2,1016.6,NNE,14,0,6.4,90,0.0,,,0.0,0,0,n/a,2026-05-08T01:18:21Z
2026-05-08 03:23:21,8.8,7.4,1016.6,ESE,119,0,0,91,0.0,,,0.0,0,0,n/a,2026-05-08T01:23:21Z
2026-05-08 03:28:21,8.7,7.2,1016.6,ESE,116,6.4,11.3,90,0.0,,,0.0,0,0,n/a,2026-05-08T01:28:21Z
2026-05-08 03:33:21,8.7,7.3,1016.6,East,89,3.2,6.4,91,0.0,,,0.0,0,0,n/a,2026-05-08T01:33:21Z
2026-05-08 03:38:21,8.7,7.3,1016.6,North,5,3.2,4.8,91,0.0,,,0.0,0,0,n/a,2026-05-08T01:38:21Z
2026-05-08 03:43:21,8.6,7.2,1016.6,NE,34,4.7,11.3,91,0.0,,,0.0,0,0,n/a,2026-05-08T01:43:21Z
2026-05-08 03:48:21,8.6,7.2,1016.6,East,86,3.2,4.8,91,0.0,,,0.0,0,0,n/a,2026-05-08T01:48:21Z
2026-05-08 03:53:21,8.5,7.1,1016.6,NE,36,0,4.8,91,0.0,,,0.0,0,0,n/a,2026-05-08T01:53:21Z
2026-05-08 03:58:23,8.4,7,1016.6,SE,136,0,6.4,91,0.0,,,0.0,0,0,n/a,2026-05-08T01:58:23Z
2026-05-08 04:03:25,8.4,7.2,1016.6,ENE,75,3.2,6.4,92,0.0,,,0.0,0,0,n/a,2026-05-08T02:03:25Z
2026-05-08 04:08:25,8.3,7.1,1016.6,NNE,29,1.4,6.4,92,0.0,,,0.0,0,0,n/a,2026-05-08T02:08:25Z
2026-05-08 04:13:28,8.3,7.1,1016.6,NNE,25,1.4,8,92,0.0,,,0.0,0,0,n/a,2026-05-08T02:13:28Z
2026-05-08 04:18:28,8.3,7.1,1016.6,NE,53,1.4,6.4,92,0.0,,,0.0,0,0,n/a,2026-05-08T02:18:28Z
2026-05-08 04:23:28,8.2,7,1016.6,NNE,30,0,9.7,92,0.0,,,0.0,0,0,n/a,2026-05-08T02:23:28Z
2026-05-08 04:28:29,8.1,6.9,1016.6,NNE,30,6.4,6.4,92,0.0,,,0.0,0,0,n/a,2026-05-08T02:28:29Z
2026-05-08 04:33:29,8.1,6.9,1016.6,NE,53,3.2,4.8,92,0.0,,,0.0,0,0,n/a,2026-05-08T02:33:29Z
2026-05-08 04:38:29,8,6.8,1016.6,SE,132,1.4,3.2,92,0.0,,,0.0,0,0,n/a,2026-05-08T02:38:29Z
2026-05-08 04:43:29,8,6.8,1016.6,East,86,1.4,3.2,92,0.0,,,0.0,0,0,n/a,2026-05-08T02:43:29Z
2026-05-08 04:48:31,7.9,6.7,1016.6,SE,124,0,4.8,92,0.0,,,0.0,0,0,n/a,2026-05-08T02:48:31Z
2026-05-08 04:53:33,7.8,6.6,1016.6,NE,36,0,4.8,92,0.0,,,0.0,0,0,n/a,2026-05-08T02:53:33Z
2026-05-08 04:58:33,7.8,6.7,1016.6,NE,42,0,1.6,93,0.0,,,0.0,0,0,n/a,2026-05-08T02:58:33Z
2026-05-08 05:03:35,7.7,6.6,1016.6,ENE,75,0,3.2,93,0.0,,,0.0,0,0,n/a,2026-05-08T03:03:35Z
2026-05-08 05:08:38,7.7,6.6,1016.6,NE,56,0,6.4,93,0.0,,,0.0,0,0,n/a,2026-05-08T03:08:38Z
2026-05-08 05:13:40,7.6,6.5,1016.6,NE,51,0,3.2,93,0.0,,,0.0,0,0,n/a,2026-05-08T03:13:40Z
2026-05-08 05:18:41,7.6,6.5,1016.6,NE,34,0,6.4,93,0.0,,,0.0,0,0,n/a,2026-05-08T03:18:41Z
2026-05-08 05:23:42,7.6,6.5,1016.6,NE,53,1.4,4.8,93,0.0,,,0.0,0,0,n/a,2026-05-08T03:23:42Z
2026-05-08 05:28:43,7.4,6.3,1016.6,East,84,0,6.4,93,0.0,,,0.0,0,0,n/a,2026-05-08T03:28:43Z
2026-05-08 05:33:46,7.4,6.3,1016.6,ENE,74,1.4,4.8,93,0.0,,,0.0,0,0,n/a,2026-05-08T03:33:46Z
2026-05-08 05:38:47,7.3,6.2,1016.6,NE,46,0,4.8,93,0.0,,,0.0,0,0,n/a,2026-05-08T03:38:47Z
2026-05-08 05:43:47,7.3,6.2,1016.6,East,98,1.4,4.8,93,0.0,,,0.0,0,0,n/a,2026-05-08T03:43:47Z
2026-05-08 05:48:53,7.3,6.2,1016.6,SE,131,3.2,4.8,93,0.0,,,0.0,0,0,n/a,2026-05-08T03:48:53Z
2026-05-08 05:53:59,7.3,6.4,1016.6,ENE,76,3.2,8,94,0.0,,,0.0,5,0,n/a,2026-05-08T03:53:59Z
2026-05-08 05:59:01,7.2,6.1,1016.6,NE,55,0,0,93,0.0,,,0.0,7,0,n/a,2026-05-08T03:59:01Z
2026-05-08 06:04:01,7.2,6.1,1016.9,East,84,3.2,4.8,93,0.0,,,0.0,11,0,n/a,2026-05-08T04:04:01Z
2026-05-08 06:09:03,7.1,6.2,1016.9,ESE,103,0,1.6,94,0.0,,,0.0,12,0,n/a,2026-05-08T04:09:03Z
2026-05-08 06:14:03,7.1,6.2,1016.9,NE,43,1.4,3.2,94,0.0,,,0.0,16,0,n/a,2026-05-08T04:14:03Z
2026-05-08 06:19:03,7.1,6.2,1016.9,NNE,23,4.7,4.8,94,0.0,,,0.0,19,0,n/a,2026-05-08T04:19:03Z
2026-05-08 06:24:03,7.1,6.2,1016.9,East,94,6.4,6.4,94,0.0,,,0.0,21,0,n/a,2026-05-08T04:24:03Z
2026-05-08 06:29:03,7.1,6.2,1016.9,North,5,0,3.2,94,0.0,,,0.0,25,0,n/a,2026-05-08T04:29:03Z
2026-05-08 06:34:06,7,6.1,1016.9,NE,46,0,4.8,94,0.0,,,0.0,28,0,n/a,2026-05-08T04:34:06Z
2026-05-08 06:39:07,7,6.1,1016.9,East,88,3.2,4.8,94,0.0,,,0.0,30,0,n/a,2026-05-08T04:39:07Z
2026-05-08 06:44:08,7,6.1,1016.9,ENE,65,1.4,8,94,0.0,,,0.0,33,0,n/a,2026-05-08T04:44:08Z
2026-05-08 06:49:09,7,6.1,1016.9,ENE,78,0,3.2,94,0.0,,,0.0,35,0,n/a,2026-05-08T04:49:09Z
2026-05-08 06:54:10,7,6.1,1016.9,NE,36,6.4,6.4,94,0.0,,,0.0,40,0,n/a,2026-05-08T04:54:10Z
2026-05-08 06:59:13,7.1,6.2,1016.9,ESE,115,0,3.2,94,0.0,,,0.0,44,0,n/a,2026-05-08T04:59:13Z
2026-05-08 07:04:14,7.2,6.3,1016.9,NNE,15,3.2,4.8,94,0.0,,,0.0,72,0,n/a,2026-05-08T05:04:14Z
2026-05-08 07:09:14,7.2,6.5,1016.9,NNE,31,0,4.8,95,0.0,,,0.0,90,0,n/a,2026-05-08T05:09:14Z
2026-05-08 07:14:14,7.4,6.5,1016.9,NE,55,3.2,4.8,94,0.0,,,0.0,83,0,n/a,2026-05-08T05:14:14Z
2026-05-08 07:19:20,7.5,6.6,1016.9,East,99,4.7,4.8,94,0.0,,,0.0,60,0,n/a,2026-05-08T05:19:20Z
2026-05-08 07:24:20,7.5,6.6,1016.9,NE,49,1.4,4.8,94,0.0,,,0.0,53,0,n/a,2026-05-08T05:24:20Z
2026-05-08 07:29:20,7.6,6.7,1016.9,NE,39,3.2,6.4,94,0.0,,,0.0,56,0.7,n/a,2026-05-08T05:29:20Z
2026-05-08 07:34:20,7.6,6.7,1016.9,NE,51,3.2,6.4,94,0.0,,,0.0,58,0,n/a,2026-05-08T05:34:20Z
2026-05-08 07:39:22,7.7,6.8,1016.9,East,98,0,4.8,94,0.0,,,0.0,65,0,n/a,2026-05-08T05:39:22Z
2026-05-08 07:44:22,7.7,6.8,1016.9,East,101,0,4.8,94,0.0,,,0.0,76,0,n/a,2026-05-08T05:44:22Z
2026-05-08 07:49:22,7.8,6.9,1016.9,NNE,26,0,4.8,94,0.0,,,0.0,105,0.5,n/a,2026-05-08T05:49:22Z
2026-05-08 07:54:22,7.9,7,1016.9,East,85,3.2,8,94,0.0,,,0.0,127,0.5,n/a,2026-05-08T05:54:22Z
2026-05-08 07:59:22,8.1,7.2,1016.9,North,0,0,6.4,94,0.0,,,0.0,125,0.6,n/a,2026-05-08T05:59:22Z
2026-05-08 08:04:26,8.2,7.3,1016.9,NNE,28,4.7,8,94,0.0,,,0.0,181,0.7,n/a,2026-05-08T06:04:26Z
2026-05-08 08:09:26,8.4,7.5,1016.9,ENE,65,3.2,6.4,94,0.0,,,0.0,148,0.7,n/a,2026-05-08T06:09:26Z
2026-05-08 08:14:26,8.4,7.3,1017.3,North,355,3.2,6.4,93,0.0,,,0.0,128,0.8,n/a,2026-05-08T06:14:26Z
2026-05-08 08:19:28,8.6,7.5,1017.3,SE,128,4.7,6.4,93,0.0,,,0.0,213,0.9,n/a,2026-05-08T06:19:28Z
2026-05-08 08:24:28,8.8,7.7,1017.3,SE,132,0,6.4,93,0.0,,,0.0,258,1,n/a,2026-05-08T06:24:28Z
2026-05-08 08:29:28,9.1,8,1017.3,East,93,1.4,6.4,93,0.0,,,0.0,267,1.1,n/a,2026-05-08T06:29:28Z
2026-05-08 08:34:28,9.2,8,1017.3,ESE,123,4.7,9.7,92,0.0,,,0.0,272,1.2,n/a,2026-05-08T06:34:28Z
2026-05-08 08:39:28,9.3,8.1,1017.3,North,5,1.4,4.8,92,0.0,,,0.0,297,1.3,n/a,2026-05-08T06:39:28Z
2026-05-08 08:44:28,9.5,8.1,1017.3,ENE,75,0,9.7,91,0.0,,,0.0,315,1.4,n/a,2026-05-08T06:44:28Z
2026-05-08 08:49:28,9.6,8.2,1017.6,NNE,21,1.4,8,91,0.0,,,0.0,353,1.5,n/a,2026-05-08T06:49:28Z
2026-05-08 08:54:28,9.7,8.1,1017.6,East,92,3.2,9.7,90,0.0,,,0.0,366,1.6,n/a,2026-05-08T06:54:28Z
2026-05-08 08:59:28,10,8.4,1017.6,ESE,110,11.1,12.9,90,0.0,,,0.0,378,1.7,n/a,2026-05-08T06:59:28Z
2026-05-08 09:04:28,10.2,8.5,1017.6,North,9,3.2,9.7,89,0.0,,,0.0,403,1.9,n/a,2026-05-08T07:04:28Z
2026-05-08 09:09:28,10.5,8.8,1017.6,ESE,117,3.2,11.3,89,0.0,,,0.0,404,2,n/a,2026-05-08T07:09:28Z
2026-05-08 09:14:28,10.5,8.4,1017.6,North,9,3.2,12.9,87,0.0,,,0.0,427,2,n/a,2026-05-08T07:14:28Z
2026-05-08 09:19:28,10.7,8.6,1017.6,NE,55,4.7,6.4,87,0.0,,,0.0,438,2.1,n/a,2026-05-08T07:19:28Z
2026-05-08 09:24:28,10.9,8.6,1017.6,ESE,117,1.4,11.3,86,0.0,,,0.0,450,2.2,n/a,2026-05-08T07:24:28Z
2026-05-08 09:29:28,11.2,8.8,1017.6,NNE,23,4.7,6.4,85,0.0,,,0.0,466,2.4,n/a,2026-05-08T07:29:28Z
2026-05-08 09:34:28,11.4,9,1017.6,ESE,122,3.2,6.4,85,0.0,,,0.0,480,2.5,n/a,2026-05-08T07:34:28Z
2026-05-08 09:39:28,11.5,8.7,1017.6,NNE,15,1.4,12.9,83,0.0,,,0.0,494,2.6,n/a,2026-05-08T07:39:28Z
2026-05-08 09:44:28,11.6,8.8,1017.6,ENE,76,3.2,6.4,83,0.0,,,0.0,506,2.7,n/a,2026-05-08T07:44:28Z
2026-05-08 09:49:28,11.8,9,1017.6,East,86,1.4,9.7,83,0.0,,,0.0,517,2.8,n/a,2026-05-08T07:49:28Z
2026-05-08 09:54:28,11.8,8.8,1017.6,North,355,7.9,16.1,82,0.0,,,0.0,536,2.9,n/a,2026-05-08T07:54:28Z
2026-05-08 09:59:28,11.9,8.9,1017.6,East,93,6.4,8,82,0.0,,,0.0,548,3,n/a,2026-05-08T07:59:28Z
2026-05-08 10:04:28,12.3,9.3,1017.6,North,0,6.4,11.3,82,0.0,,,0.0,552,3.1,n/a,2026-05-08T08:04:28Z
2026-05-08 10:09:28,12.7,9.5,1017.6,East,90,4.7,4.8,81,0.0,,,0.0,559,3.3,n/a,2026-05-08T08:09:28Z
2026-05-08 10:14:28,12.5,9.1,1017.6,NE,42,3.2,6.4,80,0.0,,,0.0,578,3.4,n/a,2026-05-08T08:14:28Z
2026-05-08 10:19:28,12.6,9.2,1017.6,ESE,106,9.7,12.9,80,0.0,,,0.0,596,3.6,n/a,2026-05-08T08:19:28Z
2026-05-08 10:24:28,12.7,9.3,1017.6,ESE,103,1.4,6.4,80,0.0,,,0.0,585,3.6,n/a,2026-05-08T08:24:28Z
2026-05-08 10:29:28,13.1,9.7,1017.6,ENE,60,3.2,6.4,80,0.0,,,0.0,619,3.9,n/a,2026-05-08T08:29:28Z
2026-05-08 10:34:28,13.2,9.4,1017.6,East,98,3.2,11.3,78,0.0,,,0.0,626,4,n/a,2026-05-08T08:34:28Z
2026-05-08 10:39:28,13.3,9.5,1017.6,NNE,32,6.4,6.4,78,0.0,,,0.0,626,4,n/a,2026-05-08T08:39:28Z
2026-05-08 10:44:28,13.4,9.4,1017.6,WNW,292,3.2,9.7,77,0.0,,,0.0,661,4.2,n/a,2026-05-08T08:44:28Z
2026-05-08 10:49:28,13.7,9.5,1017.6,ESE,112,3.2,14.5,76,0.0,,,0.0,671,4.4,n/a,2026-05-08T08:49:28Z
2026-05-08 10:54:28,13.8,9.8,1017.6,NNE,21,1.4,8,77,0.0,,,0.0,691,4.4,n/a,2026-05-08T08:54:28Z
2026-05-08 10:59:28,13.8,9.6,1017.6,SE,142,7.9,8,76,0.0,,,0.0,686,4.6,n/a,2026-05-08T08:59:28Z
2026-05-08 11:04:28,14.1,10.1,1017.6,NE,50,1.4,9.7,77,0.0,,,0.0,707,4.8,n/a,2026-05-08T09:04:28Z
2026-05-08 11:09:28,13.9,9.5,1017.6,East,94,3.2,8,75,0.0,,,0.0,724,4.9,n/a,2026-05-08T09:09:28Z
2026-05-08 11:14:28,14.4,10,1017.6,NNE,26,1.4,8,75,0.0,,,0.0,647,4.8,n/a,2026-05-08T09:14:28Z
2026-05-08 11:19:28,14.3,10.1,1017.6,West,279,4.7,4.8,76,0.0,,,0.0,724,5,n/a,2026-05-08T09:19:28Z
2026-05-08 11:24:28,14.2,9.8,1017.6,East,100,4.7,9.7,75,0.0,,,0.0,793,4,n/a,2026-05-08T09:24:28Z
2026-05-08 11:29:28,14.1,9.7,1017.6,NE,42,4.7,6.4,75,0.0,,,0.0,378,4.6,n/a,2026-05-08T09:29:28Z
2026-05-08 11:34:28,14.2,9.8,1017.6,NW,317,0,4.8,75,0.0,,,0.0,807,4.2,n/a,2026-05-08T09:34:28Z
2026-05-08 11:39:28,14.3,9.9,1017.6,ESE,109,0,6.4,75,0.0,,,0.0,758,5,n/a,2026-05-08T09:39:28Z
2026-05-08 11:44:28,14.3,9.9,1017.6,NNW,338,3.2,11.3,75,0.0,,,0.0,789,5.2,n/a,2026-05-08T09:44:28Z
2026-05-08 11:49:28,14.8,10.2,1017.6,East,101,1.4,9.7,74,0.0,,,0.0,821,3.9,n/a,2026-05-08T09:49:28Z
2026-05-08 11:54:28,14.7,10.1,1017.6,NNE,29,6.4,8,74,0.0,,,0.0,803,5,n/a,2026-05-08T09:54:28Z
2026-05-08 11:59:28,14.4,9.8,1017.6,NE,54,4.7,9.7,74,0.0,,,0.0,281,3.8,n/a,2026-05-08T09:59:28Z
2026-05-08 12:04:28,14.8,9.8,1017.3,ESE,120,1.4,6.4,72,0.0,,,0.0,814,5.1,n/a,2026-05-08T10:04:28Z
2026-05-08 12:09:28,15.3,10.1,1017.6,ENE,66,4.7,11.3,71,0.0,,,0.0,831,5.5,n/a,2026-05-08T10:09:28Z
2026-05-08 12:14:28,15.3,10.3,1017.6,NW,316,3.2,4.8,72,0.0,,,0.0,821,5.8,n/a,2026-05-08T10:14:28Z
2026-05-08 12:19:28,15.4,10,1017.6,NE,44,6.4,8,70,0.0,,,0.0,826,5.9,n/a,2026-05-08T10:19:28Z
2026-05-08 12:24:28,15.2,10,1017.3,NE,40,3.2,6.4,71,0.0,,,0.0,819,5.8,n/a,2026-05-08T10:24:28Z
2026-05-08 12:29:28,15.8,10.3,1017.6,NE,39,3.2,8,70,0.0,,,0.0,856,6.1,n/a,2026-05-08T10:29:28Z
2026-05-08 12:34:29,15.8,10.1,1017.3,ENE,59,4.7,6.4,69,0.0,,,0.0,795,6.3,n/a,2026-05-08T10:34:29Z
2026-05-08 12:39:30,15.9,10,1017.3,NNE,20,3.2,8,68,0.0,,,0.0,844,6.4,n/a,2026-05-08T10:39:30Z
2026-05-08 12:44:30,16.1,10.2,1017.3,WNW,294,4.7,9.7,68,0.0,,,0.0,847,6.3,n/a,2026-05-08T10:44:30Z
2026-05-08 12:49:30,15.4,9.5,1017.3,East,94,4.7,8,68,0.0,,,0.0,854,6.2,n/a,2026-05-08T10:49:30Z
2026-05-08 12:54:31,15.8,9.7,1017.3,WSW,246,1.4,11.3,67,0.0,,,0.0,853,6.2,n/a,2026-05-08T10:54:31Z
2026-05-08 12:59:32,15.5,9.2,1017.3,ESE,103,4.7,6.4,66,0.0,,,0.0,824,6.1,n/a,2026-05-08T10:59:32Z
2026-05-08 13:04:34,16,9.7,1017.3,ENE,71,1.4,4.8,66,0.0,,,0.0,837,6.2,n/a,2026-05-08T11:04:34Z
2026-05-08 13:09:34,15.9,9.6,1017.3,WSW,248,3.2,6.4,66,0.0,,,0.0,842,6.4,n/a,2026-05-08T11:09:34Z
2026-05-08 13:14:34,16.1,9.5,1017.3,North,355,3.2,14.5,65,0.0,,,0.0,830,6.2,n/a,2026-05-08T11:14:34Z
2026-05-08 13:19:34,16.1,9.5,1017.3,ENE,74,3.2,11.3,65,0.0,,,0.0,856,6.3,n/a,2026-05-08T11:19:34Z
2026-05-08 13:24:34,16.3,9.5,1016.9,ESE,118,3.2,11.3,64,0.0,,,0.0,842,6.4,n/a,2026-05-08T11:24:34Z
2026-05-08 13:29:37,16.8,10,1016.9,NE,44,1.4,9.7,64,0.0,,,0.0,846,6.5,n/a,2026-05-08T11:29:37Z
2026-05-08 13:34:39,16.6,10.4,1016.9,NNE,32,0,3.2,67,0.0,,,0.0,898,6.6,n/a,2026-05-08T11:34:39Z
2026-05-08 13:39:40,16.4,9.6,1016.9,ENE,77,4.7,9.7,64,0.0,,,0.0,907,6.7,n/a,2026-05-08T11:39:40Z
2026-05-08 13:44:43,16.8,10.2,1016.9,South,188,0,8,65,0.0,,,0.0,886,6.7,n/a,2026-05-08T11:44:43Z
2026-05-08 13:49:43,16.5,9.4,1016.9,NNW,345,3.2,12.9,63,0.0,,,0.0,895,6.5,n/a,2026-05-08T11:49:43Z
2026-05-08 13:54:45,16.9,9.8,1016.9,SSE,148,6.4,8,63,0.0,,,0.0,863,6.6,n/a,2026-05-08T11:54:45Z
2026-05-08 13:59:46,16.8,10.2,1016.9,ENE,67,1.4,8,65,0.0,,,0.0,893,6.6,n/a,2026-05-08T11:59:46Z
2026-05-08 14:04:46,16.9,10.5,1016.9,North,351,7.9,8,66,0.0,,,0.0,891,6.1,n/a,2026-05-08T12:04:46Z
2026-05-08 14:09:50,17,10.1,1016.9,ESE,104,4.7,11.3,64,0.0,,,0.0,888,5.9,n/a,2026-05-08T12:09:50Z
2026-05-08 14:14:56,16.9,9.8,1016.9,NNE,18,7.9,9.7,63,0.0,,,0.0,884,6.2,n/a,2026-05-08T12:14:56Z
2026-05-08 14:20:00,16.8,10,1016.9,NNE,27,3.2,6.4,64,0.0,,,0.0,853,6,n/a,2026-05-08T12:20:00Z
2026-05-08 14:25:00,16.7,9.6,1016.9,NE,44,4.7,12.9,63,0.0,,,0.0,868,5.8,n/a,2026-05-08T12:25:00Z
2026-05-08 14:30:00,17,9.9,1016.9,NNE,14,3.2,6.4,63,0.0,,,0.0,856,5.7,n/a,2026-05-08T12:30:00Z
2026-05-08 14:35:00,17.2,9.9,1016.9,SSE,165,1.4,6.4,62,0.0,,,0.0,849,5.8,n/a,2026-05-08T12:35:00Z
2026-05-08 14:40:00,17.4,9.8,1016.9,North,355,3.2,8,61,0.0,,,0.0,846,5.9,n/a,2026-05-08T12:40:00Z
2026-05-08 14:45:00,17.5,9.6,1016.9,ENE,63,1.4,6.4,60,0.0,,,0.0,863,5.9,n/a,2026-05-08T12:45:00Z
2026-05-08 14:50:00,18.3,10.4,1016.9,ENE,62,1.4,11.3,60,0.0,,,0.0,900,4.8,n/a,2026-05-08T12:50:00Z
2026-05-08 14:55:00,17.7,9.6,1016.9,SSW,197,7.9,11.3,59,0.0,,,0.0,179,3.5,n/a,2026-05-08T12:55:00Z
2026-05-08 15:00:00,17.2,9.4,1016.9,SE,130,3.2,8,60,0.0,,,0.0,197,2.7,n/a,2026-05-08T13:00:00Z
2026-05-08 15:05:00,17.1,9.3,1016.9,NW,315,1.4,1.6,60,0.0,,,0.0,211,2.6,n/a,2026-05-08T13:05:00Z
2026-05-08 15:10:00,17,9.2,1016.6,NNW,343,3.2,8,60,0.0,,,0.0,227,3.5,n/a,2026-05-08T13:10:00Z
2026-05-08 15:15:00,17.1,8.5,1016.6,NNE,16,1.4,4.8,57,0.0,,,0.0,299,2.9,n/a,2026-05-08T13:15:00Z
2026-05-08 15:20:00,17.3,8.7,1016.6,East,82,1.4,6.4,57,0.0,,,0.0,942,4.1,n/a,2026-05-08T13:20:00Z
2026-05-08 15:25:00,17.3,8.2,1016.6,NE,38,1.4,4.8,55,0.0,,,0.0,294,2.8,n/a,2026-05-08T13:25:00Z
2026-05-08 15:30:00,17.4,8.3,1016.6,NNE,18,1.4,4.8,55,0.0,,,0.0,258,2.2,n/a,2026-05-08T13:30:00Z
2026-05-08 15:35:00,17.2,8.6,1016.6,North,5,4.7,8,57,0.0,,,0.0,229,1.8,n/a,2026-05-08T13:35:00Z
2026-05-08 15:40:00,17.1,9,1016.6,NE,43,1.4,8,59,0.0,,,0.0,183,1.4,n/a,2026-05-08T13:40:00Z
2026-05-08 15:45:00,17.1,9,1016.6,North,5,0,4.8,59,0.0,,,0.0,151,1.1,n/a,2026-05-08T13:45:00Z
2026-05-08 15:50:00,17.1,9,1016.6,East,94,0,3.2,59,0.0,,,0.0,139,1,n/a,2026-05-08T13:50:00Z
2026-05-08 15:55:00,17,8.9,1016.6,NNW,340,3.2,6.4,59,0.0,,,0.0,127,0.9,n/a,2026-05-08T13:55:00Z
2026-05-08 16:00:01,16.9,8.8,1016.6,NNE,23,1.4,4.8,59,0.0,,,0.0,113,0.7,n/a,2026-05-08T14:00:01Z
2026-05-08 16:05:01,16.8,8.5,1016.6,NNW,347,6.4,9.7,58,0.0,,,0.0,97,0.6,n/a,2026-05-08T14:05:01Z
2026-05-08 16:10:01,16.7,8.6,1016.6,North,0,3.2,4.8,59,0.0,,,0.0,98,0.5,n/a,2026-05-08T14:10:01Z
2026-05-08 16:15:01,16.6,8.6,1016.6,North,10,3.2,6.4,59,0.0,,,0.0,105,0.5,n/a,2026-05-08T14:15:01Z
2026-05-08 16:20:01,16.6,8.6,1016.6,NE,48,3.2,4.8,59,0.0,,,0.0,123,0.6,n/a,2026-05-08T14:20:01Z
2026-05-08 16:25:01,16.6,8.6,1016.6,North,5,1.4,4.8,59,0.0,,,0.0,134,0.6,n/a,2026-05-08T14:25:01Z
2026-05-08 16:30:01,16.6,8.3,1016.6,North,5,3.2,4.8,58,0.0,,,0.0,141,0.7,n/a,2026-05-08T14:30:01Z
2026-05-08 16:35:01,16.7,8.4,1016.6,North,351,1.4,3.2,58,0.0,,,0.0,237,1,n/a,2026-05-08T14:35:01Z
2026-05-08 16:40:01,16.8,8.2,1016.6,NNE,32,3.2,4.8,57,0.0,,,0.0,158,0.8,n/a,2026-05-08T14:40:01Z
2026-05-08 16:45:01,16.8,8,1016.6,North,0,1.4,6.4,56,0.0,,,0.0,156,0.8,n/a,2026-05-08T14:45:01Z
2026-05-08 16:50:07,16.7,8.1,1016.3,North,355,1.4,4.8,57,0.0,,,0.0,165,0.8,n/a,2026-05-08T14:50:07Z
2026-05-08 16:55:07,16.7,8.1,1016.6,North,0,1.4,3.2,57,0.0,,,0.0,153,0.7,n/a,2026-05-08T14:55:07Z
2026-05-08 17:00:09,16.7,8.1,1016.6,North,355,1.4,3.2,57,0.0,,,0.0,142,0.7,n/a,2026-05-08T15:00:09Z
2026-05-08 17:05:09,16.8,8.2,1016.6,North,349,4.7,4.8,57,0.0,,,0.0,132,0.6,n/a,2026-05-08T15:05:09Z
2026-05-08 17:10:09,16.7,8.1,1016.3,North,5,0,3.2,57,0.0,,,0.0,132,0.6,n/a,2026-05-08T15:10:09Z
2026-05-08 17:15:09,16.8,8.2,1016.3,North,355,3.2,4.8,57,0.0,,,0.0,127,0.6,n/a,2026-05-08T15:15:09Z
2026-05-08 17:20:09,16.7,8.1,1016.6,NNE,16,1.4,4.8,57,0.0,,,0.0,116,0.5,n/a,2026-05-08T15:20:09Z
2026-05-08 17:25:09,16.7,8.1,1016.3,North,350,3.2,3.2,57,0.0,,,0.0,104,0,n/a,2026-05-08T15:25:09Z
2026-05-08 17:30:09,16.6,8.3,1016.3,NNE,30,1.4,4.8,58,0.0,,,0.0,93,0,n/a,2026-05-08T15:30:09Z
2026-05-08 17:35:11,16.6,8,1016.3,NNE,15,3.2,4.8,57,0.0,,,0.0,86,0,n/a,2026-05-08T15:35:11Z
2026-05-08 17:40:11,16.6,8,1016.3,NNE,13,0,4.8,57,0.0,,,0.0,84,0,n/a,2026-05-08T15:40:11Z
2026-05-08 17:45:13,16.6,8,1016.3,NE,42,0,3.2,57,0.0,,,0.0,84,0,n/a,2026-05-08T15:45:13Z
2026-05-08 17:50:13,16.6,8,1016.3,NNE,18,1.4,4.8,57,0.0,,,0.0,83,0,n/a,2026-05-08T15:50:13Z
2026-05-08 17:55:13,16.6,8,1016.3,North,355,0,3.2,57,0.0,,,0.0,81,0,n/a,2026-05-08T15:55:13Z
2026-05-08 18:00:13,16.6,8,1016.3,North,5,1.4,3.2,57,0.0,,,0.0,77,0,n/a,2026-05-08T16:00:13Z
2026-05-08 18:05:17,16.5,8.2,1016.3,North,5,0,0,58,0.0,,,0.0,77,0,n/a,2026-05-08T16:05:17Z
2026-05-08 18:10:23,16.6,8,1016.3,North,5,0,0,57,0.0,,,0.0,77,0,n/a,2026-05-08T16:10:23Z
2026-05-08 18:15:28,16.6,8,1016.3,NE,34,1.4,1.6,57,0.0,,,0.0,77,0,n/a,2026-05-08T16:15:28Z
2026-05-08 18:20:28,16.6,8.3,1016.3,NNE,24,0,3.2,58,0.0,,,0.0,77,0,n/a,2026-05-08T16:20:28Z
2026-05-08 18:25:28,16.7,8.6,1016.3,NNE,26,3.2,3.2,59,0.0,,,0.0,81,0,n/a,2026-05-08T16:25:28Z
2026-05-08 18:30:28,16.6,8.8,1016.3,North,0,4.7,4.8,60,0.0,,,0.0,83,0,n/a,2026-05-08T16:30:28Z
2026-05-08 18:35:28,16.5,9,1016.3,North,355,3.2,4.8,61,0.0,,,0.0,84,0,n/a,2026-05-08T16:35:28Z
2026-05-08 18:40:29,16.5,9,1016.3,North,355,0,4.8,61,0.0,,,0.0,88,0,n/a,2026-05-08T16:40:29Z
2026-05-08 18:45:29,16.5,9.2,1016.3,NE,41,1.4,3.2,62,0.0,,,0.0,88,0,n/a,2026-05-08T16:45:29Z
2026-05-08 18:50:29,16.5,9.2,1016.3,NW,317,1.4,4.8,62,0.0,,,0.0,123,0,n/a,2026-05-08T16:50:29Z
2026-05-08 18:55:31,16.6,9.3,1016.3,NE,40,1.4,3.2,62,0.0,,,0.0,132,0,n/a,2026-05-08T16:55:31Z
2026-05-08 19:00:33,16.6,9.3,1016.3,NNW,328,6.4,6.4,62,0.0,,,0.0,132,0,n/a,2026-05-08T17:00:33Z
2026-05-08 19:05:33,16.6,9.5,1016.3,NNW,339,6.4,6.4,63,0.0,,,0.0,121,0,n/a,2026-05-08T17:05:33Z
2026-05-08 19:10:33,16.5,9.2,1016.3,NNW,338,4.7,6.4,62,0.0,,,0.0,116,0,n/a,2026-05-08T17:10:33Z
2026-05-08 19:15:35,16.4,9.1,1016.3,NNE,24,1.4,4.8,62,0.0,,,0.0,102,0,n/a,2026-05-08T17:15:35Z
2026-05-08 19:20:35,16.4,9.1,1016.3,NNW,331,6.4,6.4,62,0.0,,,0.0,91,0,n/a,2026-05-08T17:20:35Z
2026-05-08 19:25:35,16.4,9.1,1016.3,NNE,12,1.4,6.4,62,0.0,,,0.0,79,0,n/a,2026-05-08T17:25:35Z
2026-05-08 19:30:35,16.3,9,1016.3,East,99,3.2,4.8,62,0.0,,,0.0,74,0,n/a,2026-05-08T17:30:35Z
2026-05-08 19:35:35,16.3,9.2,1016.3,ESE,106,3.2,3.2,63,0.0,,,0.0,70,0,n/a,2026-05-08T17:35:35Z
2026-05-08 19:40:35,16.3,9,1016.6,ESE,115,3.2,3.2,62,0.0,,,0.0,62,0,n/a,2026-05-08T17:40:35Z
2026-05-08 19:45:35,16.2,9.1,1016.6,NNE,31,3.2,3.2,63,0.0,,,0.0,56,0,n/a,2026-05-08T17:45:35Z
2026-05-08 19:50:41,16.2,9.1,1016.6,East,84,0,3.2,63,0.0,,,0.0,53,0,n/a,2026-05-08T17:50:41Z
2026-05-08 19:55:47,16.2,9.1,1016.6,NNE,13,0,3.2,63,0.0,,,0.0,49,0,n/a,2026-05-08T17:55:47Z
2026-05-08 20:00:53,16.2,9.1,1016.6,NE,53,0,0,63,0.0,,,0.0,44,0,n/a,2026-05-08T18:00:53Z
2026-05-08 20:05:59,16.2,9.1,1016.6,NE,44,3.2,4.8,63,0.0,,,0.0,39,0,n/a,2026-05-08T18:05:59Z
2026-05-08 20:11:00,16.2,9.1,1016.6,ENE,65,0,1.6,63,0.0,,,0.0,35,0,n/a,2026-05-08T18:11:00Z
2026-05-08 20:16:01,16.2,9.4,1016.6,East,86,0,3.2,64,0.0,,,0.0,30,0,n/a,2026-05-08T18:16:01Z
2026-05-08 20:21:01,16.1,9.3,1016.6,East,93,0,3.2,64,0.0,,,0.0,32,0,n/a,2026-05-08T18:21:01Z
2026-05-08 20:26:03,16.1,9.3,1016.6,East,94,0,4.8,64,0.0,,,0.0,26,0,n/a,2026-05-08T18:26:03Z
2026-05-08 20:31:05,16.1,9.1,1016.6,ESE,105,0,3.2,63,0.0,,,0.0,23,0,n/a,2026-05-08T18:31:05Z
2026-05-08 20:36:05,16.1,9.3,1016.9,SE,129,0,3.2,64,0.0,,,0.0,19,0,n/a,2026-05-08T18:36:05Z
2026-05-08 20:41:07,16,9.2,1016.9,ENE,74,0,3.2,64,0.0,,,0.0,18,0,n/a,2026-05-08T18:41:07Z
2026-05-08 20:46:10,15.9,9.3,1016.9,NNE,17,0,1.6,65,0.0,,,0.0,14,0,n/a,2026-05-08T18:46:10Z
2026-05-08 20:51:12,15.9,9.3,1016.9,ENE,66,0,0,65,0.0,,,0.0,12,0,n/a,2026-05-08T18:51:12Z
2026-05-08 20:56:12,15.8,9.5,1016.9,NNE,31,0,3.2,66,0.0,,,0.0,9,0,n/a,2026-05-08T18:56:12Z